sensor_id;sensor_type;location;lat;lon;timestamp;pressure;altitude;pressure_sealevel;temperature;humidity
54920;BME280;63804;53.120;8.764;2023-07-22T00:00:06;101269.25;;;16.09;71.15
54920;BME280;63804;53.120;8.764;2023-07-22T00:02:38;101260.09;;;16.02;71.18
54920;BME280;63804;53.120;8.764;2023-07-22T00:05:06;101263.66;;;16.12;70.57
54920;BME280;63804;53.120;8.764;2023-07-22T00:07:33;101265.91;;;16.07;70.82
54920;BME280;63804;53.120;8.764;2023-07-22T00:10:00;101259.41;;;16.09;70.77
54920;BME280;63804;53.120;8.764;2023-07-22T00:12:28;101264.91;;;16.08;70.53
54920;BME280;63804;53.120;8.764;2023-07-22T00:14:55;101256.31;;;16.04;70.36
54920;BME280;63804;53.120;8.764;2023-07-22T00:17:23;101256.06;;;16.07;70.16
54920;BME280;63804;53.120;8.764;2023-07-22T00:19:51;101264.75;;;16.00;70.54
54920;BME280;63804;53.120;8.764;2023-07-22T00:22:19;101262.78;;;16.02;70.56
54920;BME280;63804;53.120;8.764;2023-07-22T00:24:47;101267.16;;;16.03;70.58
54920;BME280;63804;53.120;8.764;2023-07-22T00:27:14;101254.59;;;15.94;70.51
54920;BME280;63804;53.120;8.764;2023-07-22T00:29:42;101260.09;;;16.02;70.39
54920;BME280;63804;53.120;8.764;2023-07-22T00:32:09;101257.00;;;15.97;70.46
54920;BME280;63804;53.120;8.764;2023-07-22T00:34:36;101257.25;;;15.94;70.51
54920;BME280;63804;53.120;8.764;2023-07-22T00:37:04;101252.91;;;15.93;70.24
54920;BME280;63804;53.120;8.764;2023-07-22T00:39:31;101256.09;;;15.77;70.96
54920;BME280;63804;53.120;8.764;2023-07-22T00:41:58;101262.59;;;15.84;70.87
54920;BME280;63804;53.120;8.764;2023-07-22T00:44:26;101248.25;;;15.85;70.79
54920;BME280;63804;53.120;8.764;2023-07-22T00:49:26;101242.28;;;15.72;70.88
54920;BME280;63804;53.120;8.764;2023-07-22T00:51:57;101257.50;;;15.81;71.03
54920;BME280;63804;53.120;8.764;2023-07-22T00:54:27;101272.13;;;15.87;70.47
54920;BME280;63804;53.120;8.764;2023-07-22T00:56:56;101266.78;;;15.87;70.67
54920;BME280;63804;53.120;8.764;2023-07-22T00:59:24;101263.44;;;15.84;70.58
54920;BME280;63804;53.120;8.764;2023-07-22T01:01:52;101256.78;;;15.79;71.02
54920;BME280;63804;53.120;8.764;2023-07-22T01:04:20;101253.53;;;15.75;70.92
54920;BME280;63804;53.120;8.764;2023-07-22T01:06:59;101252.69;;;15.75;71.05
54920;BME280;63804;53.120;8.764;2023-07-22T01:09:34;101238.94;;;15.79;70.74
54920;BME280;63804;53.120;8.764;2023-07-22T01:12:01;101249.75;;;15.68;71.08
54920;BME280;63804;53.120;8.764;2023-07-22T01:14:29;101247.19;;;15.67;71.20
54920;BME280;63804;53.120;8.764;2023-07-22T01:16:56;101244.94;;;15.72;70.95
54920;BME280;63804;53.120;8.764;2023-07-22T01:19:24;101248.16;;;15.66;70.94
54920;BME280;63804;53.120;8.764;2023-07-22T01:21:52;101247.31;;;15.65;70.98
54920;BME280;63804;53.120;8.764;2023-07-22T01:24:21;101247.06;;;15.68;70.87
54920;BME280;63804;53.120;8.764;2023-07-22T01:26:48;101234.31;;;15.60;70.86
54920;BME280;63804;53.120;8.764;2023-07-22T01:29:16;101242.22;;;15.62;70.81
54920;BME280;63804;53.120;8.764;2023-07-22T01:31:48;101234.06;;;15.64;70.99
54920;BME280;63804;53.120;8.764;2023-07-22T01:34:16;101230.53;;;15.63;70.87
54920;BME280;63804;53.120;8.764;2023-07-22T01:36:48;101241.72;;;15.68;70.42
54920;BME280;63804;53.120;8.764;2023-07-22T01:39:16;101228.88;;;15.62;70.69
54920;BME280;63804;53.120;8.764;2023-07-22T01:41:44;101245.22;;;15.48;71.03
54920;BME280;63804;53.120;8.764;2023-07-22T01:44:11;101226.44;;;15.49;70.93
54920;BME280;63804;53.120;8.764;2023-07-22T01:46:39;101234.13;;;15.43;71.08
54920;BME280;63804;53.120;8.764;2023-07-22T01:49:09;101236.25;;;15.49;70.89
54920;BME280;63804;53.120;8.764;2023-07-22T01:51:37;101238.78;;;15.50;71.09
54920;BME280;63804;53.120;8.764;2023-07-22T01:54:07;101236.13;;;15.50;70.78
54920;BME280;63804;53.120;8.764;2023-07-22T01:56:36;101239.38;;;15.54;70.90
54920;BME280;63804;53.120;8.764;2023-07-22T01:59:04;101238.28;;;15.35;71.34
54920;BME280;63804;53.120;8.764;2023-07-22T02:01:32;101245.06;;;15.40;71.27
54920;BME280;63804;53.120;8.764;2023-07-22T02:04:00;101235.88;;;15.32;71.20
54920;BME280;63804;53.120;8.764;2023-07-22T02:06:27;101245.72;;;15.32;71.39
54920;BME280;63804;53.120;8.764;2023-07-22T02:08:56;101230.28;;;15.35;71.06
54920;BME280;63804;53.120;8.764;2023-07-22T02:11:24;101232.50;;;15.30;71.26
54920;BME280;63804;53.120;8.764;2023-07-22T02:13:51;101235.88;;;15.32;71.26
54920;BME280;63804;53.120;8.764;2023-07-22T02:16:18;101228.28;;;15.28;71.35
54920;BME280;63804;53.120;8.764;2023-07-22T02:18:46;101233.28;;;15.21;71.43
54920;BME280;63804;53.120;8.764;2023-07-22T02:21:14;101237.38;;;15.25;71.40
54920;BME280;63804;53.120;8.764;2023-07-22T02:23:41;101236.94;;;15.20;71.67
54920;BME280;63804;53.120;8.764;2023-07-22T02:26:09;101239.34;;;15.23;71.41
54920;BME280;63804;53.120;8.764;2023-07-22T02:28:37;101244.28;;;15.28;71.68
54920;BME280;63804;53.120;8.764;2023-07-22T02:31:04;101238.50;;;15.23;71.60
54920;BME280;63804;53.120;8.764;2023-07-22T02:33:34;101237.09;;;15.19;71.55
54920;BME280;63804;53.120;8.764;2023-07-22T02:36:01;101238.63;;;15.21;71.65
54920;BME280;63804;53.120;8.764;2023-07-22T02:38:29;101247.09;;;15.26;71.37
54920;BME280;63804;53.120;8.764;2023-07-22T02:41:03;101257.63;;;15.28;71.21
54920;BME280;63804;53.120;8.764;2023-07-22T02:43:34;101261.28;;;15.27;71.33
54920;BME280;63804;53.120;8.764;2023-07-22T02:46:03;101258.72;;;15.25;71.49
54920;BME280;63804;53.120;8.764;2023-07-22T02:48:32;101265.69;;;15.17;71.83
54920;BME280;63804;53.120;8.764;2023-07-22T02:51:10;101260.75;;;15.12;72.02
54920;BME280;63804;53.120;8.764;2023-07-22T02:53:40;101260.94;;;14.99;72.36
54920;BME280;63804;53.120;8.764;2023-07-22T02:56:08;101265.75;;;15.05;71.88
54920;BME280;63804;53.120;8.764;2023-07-22T02:58:35;101272.28;;;15.13;71.93
54920;BME280;63804;53.120;8.764;2023-07-22T03:01:04;101286.44;;;15.13;71.90
54920;BME280;63804;53.120;8.764;2023-07-22T03:03:32;101277.09;;;15.19;71.65
54920;BME280;63804;53.120;8.764;2023-07-22T03:06:01;101282.69;;;15.16;71.76
54920;BME280;63804;53.120;8.764;2023-07-22T03:08:30;101282.59;;;15.06;72.17
54920;BME280;63804;53.120;8.764;2023-07-22T03:10:57;101284.03;;;15.10;72.17
54920;BME280;63804;53.120;8.764;2023-07-22T03:13:25;101278.13;;;15.06;72.27
54920;BME280;63804;53.120;8.764;2023-07-22T03:15:57;101281.25;;;15.11;72.05
54920;BME280;63804;53.120;8.764;2023-07-22T03:18:25;101285.16;;;15.07;72.02
54920;BME280;63804;53.120;8.764;2023-07-22T03:20:52;101285.16;;;15.07;72.13
54920;BME280;63804;53.120;8.764;2023-07-22T03:23:19;101281.75;;;15.05;72.10
54920;BME280;63804;53.120;8.764;2023-07-22T03:25:47;101289.44;;;14.99;72.10
54920;BME280;63804;53.120;8.764;2023-07-22T03:28:15;101293.81;;;15.00;72.29
54920;BME280;63804;53.120;8.764;2023-07-22T03:30:43;101293.06;;;14.98;72.23
54920;BME280;63804;53.120;8.764;2023-07-22T03:33:11;101299.75;;;15.03;72.06
54920;BME280;63804;53.120;8.764;2023-07-22T03:35:38;101299.34;;;15.08;71.73
54920;BME280;63804;53.120;8.764;2023-07-22T03:38:07;101300.81;;;15.01;72.05
54920;BME280;63804;53.120;8.764;2023-07-22T03:40:35;101303.94;;;15.06;71.87
54920;BME280;63804;53.120;8.764;2023-07-22T03:43:02;101301.41;;;15.04;71.82
54920;BME280;63804;53.120;8.764;2023-07-22T03:45:30;101302.50;;;15.02;71.88
54920;BME280;63804;53.120;8.764;2023-07-22T03:47:58;101303.25;;;15.04;72.00
54920;BME280;63804;53.120;8.764;2023-07-22T03:50:27;101302.75;;;14.99;72.02
54920;BME280;63804;53.120;8.764;2023-07-22T03:52:55;101310.66;;;15.00;72.31
54920;BME280;63804;53.120;8.764;2023-07-22T03:55:22;101311.50;;;15.01;72.12
54920;BME280;63804;53.120;8.764;2023-07-22T03:57:50;101305.31;;;15.00;72.03
54920;BME280;63804;53.120;8.764;2023-07-22T04:00:17;101314.03;;;15.02;71.95
54920;BME280;63804;53.120;8.764;2023-07-22T04:02:45;101309.28;;;15.06;72.08
54920;BME280;63804;53.120;8.764;2023-07-22T04:05:12;101322.50;;;15.07;71.86
54920;BME280;63804;53.120;8.764;2023-07-22T04:07:39;101311.25;;;15.04;71.76
54920;BME280;63804;53.120;8.764;2023-07-22T04:10:07;101306.03;;;15.02;71.97
54920;BME280;63804;53.120;8.764;2023-07-22T04:12:34;101302.66;;;15.00;72.05
54920;BME280;63804;53.120;8.764;2023-07-22T04:15:02;101306.03;;;15.02;71.92
54920;BME280;63804;53.120;8.764;2023-07-22T04:17:33;101305.19;;;15.02;72.15
54920;BME280;63804;53.120;8.764;2023-07-22T04:20:00;101317.47;;;14.93;72.41
54920;BME280;63804;53.120;8.764;2023-07-22T04:22:28;101315.91;;;14.91;72.37
54920;BME280;63804;53.120;8.764;2023-07-22T04:24:56;101322.16;;;15.01;72.05
54920;BME280;63804;53.120;8.764;2023-07-22T04:27:23;101317.44;;;15.04;71.94
54920;BME280;63804;53.120;8.764;2023-07-22T04:29:50;101319.94;;;15.06;71.72
54920;BME280;63804;53.120;8.764;2023-07-22T04:32:18;101325.94;;;14.98;72.15
54920;BME280;63804;53.120;8.764;2023-07-22T04:34:45;101326.41;;;15.03;71.82
54920;BME280;63804;53.120;8.764;2023-07-22T04:37:12;101334.91;;;14.97;72.02
54920;BME280;63804;53.120;8.764;2023-07-22T04:39:40;101338.75;;;15.04;71.96
54920;BME280;63804;53.120;8.764;2023-07-22T04:42:07;101343.31;;;15.14;71.74
54920;BME280;63804;53.120;8.764;2023-07-22T04:44:35;101337.41;;;15.10;71.69
54920;BME280;63804;53.120;8.764;2023-07-22T04:47:02;101343.84;;;15.07;71.68
54920;BME280;63804;53.120;8.764;2023-07-22T04:49:29;101345.41;;;15.10;71.75
54920;BME280;63804;53.120;8.764;2023-07-22T04:51:57;101339.94;;;15.11;71.75
54920;BME280;63804;53.120;8.764;2023-07-22T04:54:24;101356.06;;;15.10;71.80
54920;BME280;63804;53.120;8.764;2023-07-22T04:56:51;101346.03;;;15.02;71.97
54920;BME280;63804;53.120;8.764;2023-07-22T04:59:18;101350.88;;;15.08;71.91
54920;BME280;63804;53.120;8.764;2023-07-22T05:01:46;101356.66;;;15.14;71.60
54920;BME280;63804;53.120;8.764;2023-07-22T05:04:13;101348.66;;;15.14;71.57
54920;BME280;63804;53.120;8.764;2023-07-22T05:06:40;101350.72;;;15.10;71.47
54920;BME280;63804;53.120;8.764;2023-07-22T05:09:08;101351.72;;;15.09;71.62
54920;BME280;63804;53.120;8.764;2023-07-22T05:11:35;101352.66;;;15.19;71.15
54920;BME280;63804;53.120;8.764;2023-07-22T05:14:02;101353.56;;;15.29;71.03
54920;BME280;63804;53.120;8.764;2023-07-22T05:16:30;101352.13;;;15.25;71.25
54920;BME280;63804;53.120;8.764;2023-07-22T05:18:58;101356.94;;;15.31;71.33
54920;BME280;63804;53.120;8.764;2023-07-22T05:21:25;101342.63;;;15.32;70.96
54920;BME280;63804;53.120;8.764;2023-07-22T05:23:52;101340.53;;;15.36;70.97
54920;BME280;63804;53.120;8.764;2023-07-22T05:26:19;101344.06;;;15.36;70.98
54920;BME280;63804;53.120;8.764;2023-07-22T05:28:47;101345.38;;;15.42;70.76
54920;BME280;63804;53.120;8.764;2023-07-22T05:31:16;101342.50;;;15.55;70.35
54920;BME280;63804;53.120;8.764;2023-07-22T05:33:43;101352.09;;;15.57;70.43
54920;BME280;63804;53.120;8.764;2023-07-22T05:36:10;101346.81;;;15.67;70.26
54920;BME280;63804;53.120;8.764;2023-07-22T05:38:38;101352.63;;;15.72;70.30
54920;BME280;63804;53.120;8.764;2023-07-22T05:41:05;101351.38;;;15.76;70.19
54920;BME280;63804;53.120;8.764;2023-07-22T05:43:32;101348.00;;;15.74;70.19
54920;BME280;63804;53.120;8.764;2023-07-22T05:46:00;101353.06;;;15.77;70.02
54920;BME280;63804;53.120;8.764;2023-07-22T05:48:28;101345.91;;;15.78;70.04
54920;BME280;63804;53.120;8.764;2023-07-22T05:50:55;101347.47;;;15.80;69.73
54920;BME280;63804;53.120;8.764;2023-07-22T05:53:22;101343.88;;;15.91;69.13
54920;BME280;63804;53.120;8.764;2023-07-22T05:55:50;101345.97;;;15.88;69.31
54920;BME280;63804;53.120;8.764;2023-07-22T05:58:17;101353.44;;;15.94;69.21
54920;BME280;63804;53.120;8.764;2023-07-22T06:00:45;101359.09;;;16.00;69.13
54920;BME280;63804;53.120;8.764;2023-07-22T06:03:16;101359.25;;;16.08;69.00
54920;BME280;63804;53.120;8.764;2023-07-22T06:05:43;101351.25;;;16.08;68.64
54920;BME280;63804;53.120;8.764;2023-07-22T06:08:11;101356.19;;;16.13;68.92
54920;BME280;63804;53.120;8.764;2023-07-22T06:10:40;101366.47;;;16.18;68.87
54920;BME280;63804;53.120;8.764;2023-07-22T06:13:07;101358.06;;;16.22;68.56
54920;BME280;63804;53.120;8.764;2023-07-22T06:15:35;101366.09;;;16.32;68.25
54920;BME280;63804;53.120;8.764;2023-07-22T06:18:02;101370.34;;;16.35;68.13
54920;BME280;63804;53.120;8.764;2023-07-22T06:20:30;101367.78;;;16.33;68.13
54920;BME280;63804;53.120;8.764;2023-07-22T06:22:57;101369.63;;;16.32;68.46
54920;BME280;63804;53.120;8.764;2023-07-22T06:25:24;101373.28;;;16.31;68.34
54920;BME280;63804;53.120;8.764;2023-07-22T06:27:52;101373.38;;;16.20;68.77
54920;BME280;63804;53.120;8.764;2023-07-22T06:30:21;101376.06;;;16.20;68.62
54920;BME280;63804;53.120;8.764;2023-07-22T06:32:48;101374.81;;;16.24;68.39
54920;BME280;63804;53.120;8.764;2023-07-22T06:35:16;101371.72;;;16.29;68.41
54920;BME280;63804;53.120;8.764;2023-07-22T06:37:43;101367.78;;;16.33;68.37
54920;BME280;63804;53.120;8.764;2023-07-22T06:40:10;101373.88;;;16.35;68.16
54920;BME280;63804;53.120;8.764;2023-07-22T06:42:38;101371.91;;;16.37;68.23
54920;BME280;63804;53.120;8.764;2023-07-22T06:45:06;101370.78;;;16.40;68.11
54920;BME280;63804;53.120;8.764;2023-07-22T06:47:33;101353.88;;;16.29;67.91
54920;BME280;63804;53.120;8.764;2023-07-22T06:50:03;101372.66;;;16.49;67.73
54920;BME280;63804;53.120;8.764;2023-07-22T06:52:32;101375.75;;;16.54;67.74
54920;BME280;63804;53.120;8.764;2023-07-22T06:55:00;101374.34;;;16.60;67.46
54920;BME280;63804;53.120;8.764;2023-07-22T06:57:29;101367.03;;;16.62;67.45
54920;BME280;63804;53.120;8.764;2023-07-22T06:59:56;101381.00;;;16.65;67.34
54920;BME280;63804;53.120;8.764;2023-07-22T07:02:23;101380.31;;;16.73;67.45
54920;BME280;63804;53.120;8.764;2023-07-22T07:04:51;101378.75;;;16.70;67.34
54920;BME280;63804;53.120;8.764;2023-07-22T07:07:19;101376.66;;;16.74;67.17
54920;BME280;63804;53.120;8.764;2023-07-22T07:09:46;101378.34;;;16.75;67.20
54920;BME280;63804;53.120;8.764;2023-07-22T07:12:13;101381.00;;;16.65;66.98
54920;BME280;63804;53.120;8.764;2023-07-22T07:14:40;101380.16;;;16.65;66.75
54920;BME280;63804;53.120;8.764;2023-07-22T07:17:08;101382.56;;;16.68;66.83
54920;BME280;63804;53.120;8.764;2023-07-22T07:19:35;101372.03;;;16.76;66.56
54920;BME280;63804;53.120;8.764;2023-07-22T07:22:02;101368.94;;;16.90;66.07
54920;BME280;63804;53.120;8.764;2023-07-22T07:24:30;101367.28;;;16.99;65.84
54920;BME280;63804;53.120;8.764;2023-07-22T07:26:57;101368.97;;;17.00;65.85
54920;BME280;63804;53.120;8.764;2023-07-22T07:29:24;101368.56;;;16.95;65.89
54920;BME280;63804;53.120;8.764;2023-07-22T07:32:11;101374.44;;;16.89;66.00
54920;BME280;63804;53.120;8.764;2023-07-22T07:34:39;101374.28;;;16.90;65.88
54920;BME280;63804;53.120;8.764;2023-07-22T07:37:06;101373.34;;;16.91;65.89
54920;BME280;63804;53.120;8.764;2023-07-22T07:39:33;101379.25;;;16.95;66.49
54920;BME280;63804;53.120;8.764;2023-07-22T07:42:01;101372.06;;;16.95;65.98
54920;BME280;63804;53.120;8.764;2023-07-22T07:44:28;101380.09;;;17.05;65.11
54920;BME280;63804;53.120;8.764;2023-07-22T07:46:56;101380.22;;;17.13;65.30
54920;BME280;63804;53.120;8.764;2023-07-22T07:49:23;101378.81;;;17.09;65.15
54920;BME280;63804;53.120;8.764;2023-07-22T07:51:51;101376.59;;;17.14;65.10
54920;BME280;63804;53.120;8.764;2023-07-22T07:54:18;101380.53;;;17.20;65.26
54920;BME280;63804;53.120;8.764;2023-07-22T07:56:45;101389.84;;;17.25;64.91
54920;BME280;63804;53.120;8.764;2023-07-22T07:59:12;101387.56;;;17.30;64.98
54920;BME280;63804;53.120;8.764;2023-07-22T08:01:40;101391.53;;;17.36;64.90
54920;BME280;63804;53.120;8.764;2023-07-22T08:04:09;101389.69;;;17.37;64.75
54920;BME280;63804;53.120;8.764;2023-07-22T08:06:36;101397.00;;;17.35;64.53
54920;BME280;63804;53.120;8.764;2023-07-22T08:09:04;101395.59;;;17.30;64.27
54920;BME280;63804;53.120;8.764;2023-07-22T08:11:32;101401.38;;;17.36;64.40
54920;BME280;63804;53.120;8.764;2023-07-22T08:14:00;101388.53;;;17.39;63.68
54920;BME280;63804;53.120;8.764;2023-07-22T08:16:28;101397.84;;;17.54;63.82
54920;BME280;63804;53.120;8.764;2023-07-22T08:18:56;101395.56;;;17.69;63.14
54920;BME280;63804;53.120;8.764;2023-07-22T08:21:24;101397.97;;;17.63;63.69
54920;BME280;63804;53.120;8.764;2023-07-22T08:23:51;101394.03;;;17.67;63.37
54920;BME280;63804;53.120;8.764;2023-07-22T08:26:18;101390.09;;;17.71;63.68
54920;BME280;63804;53.120;8.764;2023-07-22T08:28:48;101389.66;;;17.66;63.34
54920;BME280;63804;53.120;8.764;2023-07-22T08:31:15;101395.88;;;17.76;63.04
54920;BME280;63804;53.120;8.764;2023-07-22T08:33:42;101399.06;;;17.89;62.46
54920;BME280;63804;53.120;8.764;2023-07-22T08:36:10;101387.66;;;17.87;61.94
54920;BME280;63804;53.120;8.764;2023-07-22T08:38:37;101393.16;;;17.95;62.23
54920;BME280;63804;53.120;8.764;2023-07-22T08:41:05;101384.03;;;18.16;61.96
54920;BME280;63804;53.120;8.764;2023-07-22T08:43:34;101386.63;;;18.35;61.47
54920;BME280;63804;53.120;8.764;2023-07-22T08:46:01;101383.97;;;18.35;60.27
54920;BME280;63804;53.120;8.764;2023-07-22T08:48:30;101386.91;;;18.42;59.82
54920;BME280;63804;53.120;8.764;2023-07-22T08:51:09;101393.19;;;18.50;59.69
54920;BME280;63804;53.120;8.764;2023-07-22T08:53:37;101392.41;;;18.40;59.95
54920;BME280;63804;53.120;8.764;2023-07-22T08:56:05;101389.69;;;18.50;60.49
54920;BME280;63804;53.120;8.764;2023-07-22T08:58:33;101392.41;;;18.68;60.20
54920;BME280;63804;53.120;8.764;2023-07-22T09:01:01;101391.78;;;18.84;59.15
54920;BME280;63804;53.120;8.764;2023-07-22T09:03:29;101395.63;;;18.81;59.01
54920;BME280;63804;53.120;8.764;2023-07-22T09:05:56;101392.56;;;18.66;59.11
54920;BME280;63804;53.120;8.764;2023-07-22T09:08:24;101402.13;;;18.69;58.99
54920;BME280;63804;53.120;8.764;2023-07-22T09:10:52;101387.63;;;18.62;58.77
54920;BME280;63804;53.120;8.764;2023-07-22T09:13:21;101398.53;;;18.60;59.28
54920;BME280;63804;53.120;8.764;2023-07-22T09:15:50;101387.63;;;18.62;59.72
54920;BME280;63804;53.120;8.764;2023-07-22T09:18:18;101393.53;;;18.65;59.06
54920;BME280;63804;53.120;8.764;2023-07-22T09:20:45;101387.50;;;18.63;58.99
54920;BME280;63804;53.120;8.764;2023-07-22T09:23:13;101392.53;;;18.76;58.69
54920;BME280;63804;53.120;8.764;2023-07-22T09:25:41;101390.47;;;18.88;58.71
54920;BME280;63804;53.120;8.764;2023-07-22T09:28:09;101384.28;;;18.87;58.75
54920;BME280;63804;53.120;8.764;2023-07-22T09:30:38;101382.22;;;18.81;58.90
54920;BME280;63804;53.120;8.764;2023-07-22T09:33:20;101375.88;;;18.72;59.12
54920;BME280;63804;53.120;8.764;2023-07-22T09:35:49;101383.13;;;18.62;59.75
54920;BME280;63804;53.120;8.764;2023-07-22T09:38:24;101369.41;;;18.65;59.12
54920;BME280;63804;53.120;8.764;2023-07-22T09:40:52;101372.09;;;18.65;59.53
54920;BME280;63804;53.120;8.764;2023-07-22T09:43:22;101375.59;;;18.75;59.29
54920;BME280;63804;53.120;8.764;2023-07-22T09:45:50;101375.75;;;18.92;58.80
54920;BME280;63804;53.120;8.764;2023-07-22T09:48:18;101372.53;;;18.88;58.62
54920;BME280;63804;53.120;8.764;2023-07-22T09:50:45;101364.25;;;18.99;58.67
54920;BME280;63804;53.120;8.764;2023-07-22T09:53:15;101366.34;;;19.23;57.43
54920;BME280;63804;53.120;8.764;2023-07-22T09:55:43;101376.91;;;19.25;57.31
54920;BME280;63804;53.120;8.764;2023-07-22T09:58:11;101375.06;;;19.26;57.68
54920;BME280;63804;53.120;8.764;2023-07-22T10:00:47;101363.25;;;19.36;57.34
54920;BME280;63804;53.120;8.764;2023-07-22T10:03:18;101356.41;;;19.42;57.08
54920;BME280;63804;53.120;8.764;2023-07-22T10:05:48;101363.19;;;19.46;56.79
54920;BME280;63804;53.120;8.764;2023-07-22T10:08:18;101359.09;;;19.42;57.41
54920;BME280;63804;53.120;8.764;2023-07-22T10:10:46;101352.03;;;19.41;57.74
54920;BME280;63804;53.120;8.764;2023-07-22T10:13:14;101349.56;;;19.65;56.52
54920;BME280;63804;53.120;8.764;2023-07-22T10:15:42;101351.69;;;19.88;56.14
54920;BME280;63804;53.120;8.764;2023-07-22T10:18:10;101347.75;;;20.00;55.88
54920;BME280;63804;53.120;8.764;2023-07-22T10:23:14;101356.66;;;20.01;56.22
54920;BME280;63804;53.120;8.764;2023-07-22T10:25:43;101341.06;;;20.04;55.38
54920;BME280;63804;53.120;8.764;2023-07-22T10:28:12;101344.91;;;20.02;55.33
54920;BME280;63804;53.120;8.764;2023-07-22T10:30:40;101348.13;;;20.05;55.39
54920;BME280;63804;53.120;8.764;2023-07-22T10:33:08;101350.81;;;20.05;55.25
54920;BME280;63804;53.120;8.764;2023-07-22T10:35:41;101350.31;;;20.10;55.91
54920;BME280;63804;53.120;8.764;2023-07-22T10:40:50;101346.97;;;19.82;55.38
54920;BME280;63804;53.120;8.764;2023-07-22T10:43:24;101347.47;;;19.77;56.12
54920;BME280;63804;53.120;8.764;2023-07-22T10:45:54;101346.16;;;19.81;56.73
54920;BME280;63804;53.120;8.764;2023-07-22T10:48:25;101351.84;;;19.78;57.29
54920;BME280;63804;53.120;8.764;2023-07-22T10:50:58;101351.25;;;19.66;56.73
54920;BME280;63804;53.120;8.764;2023-07-22T10:56:20;101343.19;;;19.66;56.87
54920;BME280;63804;53.120;8.764;2023-07-22T11:04:11;101336.22;;;20.08;54.94
54920;BME280;63804;53.120;8.764;2023-07-22T11:12:05;101331.66;;;20.08;54.28
54920;BME280;63804;53.120;8.764;2023-07-22T11:15:05;101335.41;;;20.15;54.07
54920;BME280;63804;53.120;8.764;2023-07-22T11:17:33;101331.88;;;20.15;54.76
54920;BME280;63804;53.120;8.764;2023-07-22T11:20:02;101336.06;;;20.17;54.66
54920;BME280;63804;53.120;8.764;2023-07-22T11:22:29;101330.44;;;20.03;54.60
54920;BME280;63804;53.120;8.764;2023-07-22T11:24:57;101339.69;;;20.00;55.00
54920;BME280;63804;53.120;8.764;2023-07-22T11:27:25;101327.31;;;20.07;54.81
54920;BME280;63804;53.120;8.764;2023-07-22T11:29:52;101333.16;;;20.11;54.03
54920;BME280;63804;53.120;8.764;2023-07-22T11:32:20;101323.22;;;20.03;53.82
54920;BME280;63804;53.120;8.764;2023-07-22T11:34:51;101320.75;;;20.10;53.47
54920;BME280;63804;53.120;8.764;2023-07-22T11:37:20;101325.00;;;20.20;53.95
54920;BME280;63804;53.120;8.764;2023-07-22T11:39:47;101316.72;;;20.14;54.01
54920;BME280;63804;53.120;8.764;2023-07-22T11:42:15;101315.88;;;20.13;53.95
54920;BME280;63804;53.120;8.764;2023-07-22T11:44:42;101317.25;;;20.17;53.65
54920;BME280;63804;53.120;8.764;2023-07-22T11:47:09;101311.19;;;20.15;54.09
54920;BME280;63804;53.120;8.764;2023-07-22T11:49:41;101314.94;;;20.23;54.07
54920;BME280;63804;53.120;8.764;2023-07-22T11:52:11;101318.25;;;20.16;54.06
54920;BME280;63804;53.120;8.764;2023-07-22T11:54:42;101310.78;;;20.02;54.63
54920;BME280;63804;53.120;8.764;2023-07-22T11:57:17;101299.19;;;20.02;54.56
54920;BME280;63804;53.120;8.764;2023-07-22T11:59:49;101300.75;;;20.12;53.95
54920;BME280;63804;53.120;8.764;2023-07-22T12:02:19;101298.38;;;20.09;54.39
54920;BME280;63804;53.120;8.764;2023-07-22T12:07:24;101298.16;;;19.68;55.48
54920;BME280;63804;53.120;8.764;2023-07-22T12:09:53;101305.88;;;19.63;55.94
54920;BME280;63804;53.120;8.764;2023-07-22T12:12:20;101300.75;;;19.52;55.78
54920;BME280;63804;53.120;8.764;2023-07-22T12:14:47;101310.28;;;19.46;56.01
54920;BME280;63804;53.120;8.764;2023-07-22T12:17:15;101303.16;;;19.37;56.47
54920;BME280;63804;53.120;8.764;2023-07-22T12:19:52;101312.88;;;19.38;56.62
54920;BME280;63804;53.120;8.764;2023-07-22T12:22:22;101316.75;;;19.36;57.06
54920;BME280;63804;53.120;8.764;2023-07-22T12:24:49;101314.69;;;19.30;57.49
54920;BME280;63804;53.120;8.764;2023-07-22T12:27:16;101322.38;;;19.24;57.54
54920;BME280;63804;53.120;8.764;2023-07-22T12:29:44;101319.16;;;19.21;58.00
54920;BME280;63804;53.120;8.764;2023-07-22T12:32:11;101311.75;;;19.23;58.84
54920;BME280;63804;53.120;8.764;2023-07-22T12:34:38;101314.63;;;19.21;59.42
54920;BME280;63804;53.120;8.764;2023-07-22T12:37:05;101327.59;;;19.08;59.76
54920;BME280;63804;53.120;8.764;2023-07-22T12:39:35;101331.13;;;18.91;60.62
54920;BME280;63804;53.120;8.764;2023-07-22T12:42:03;101334.81;;;18.90;61.33
54920;BME280;63804;53.120;8.764;2023-07-22T12:44:31;101337.63;;;18.88;61.99
54920;BME280;63804;53.120;8.764;2023-07-22T12:46:58;101329.50;;;18.80;63.05
54920;BME280;63804;53.120;8.764;2023-07-22T12:49:25;101326.47;;;18.65;64.25
54920;BME280;63804;53.120;8.764;2023-07-22T12:51:52;101327.56;;;18.55;65.31
54920;BME280;63804;53.120;8.764;2023-07-22T12:54:21;101342.41;;;18.49;66.42
54920;BME280;63804;53.120;8.764;2023-07-22T12:56:49;101356.91;;;18.56;66.62
54920;BME280;63804;53.120;8.764;2023-07-22T12:59:16;101347.38;;;18.62;66.82
54920;BME280;63804;53.120;8.764;2023-07-22T13:01:43;101339.13;;;18.55;67.53
54920;BME280;63804;53.120;8.764;2023-07-22T13:04:10;101339.03;;;18.47;68.29
54920;BME280;63804;53.120;8.764;2023-07-22T13:06:38;101340.56;;;18.49;68.51
54920;BME280;63804;53.120;8.764;2023-07-22T13:09:05;101342.16;;;18.42;69.22
54920;BME280;63804;53.120;8.764;2023-07-22T13:11:32;101344.34;;;18.29;69.38
54920;BME280;63804;53.120;8.764;2023-07-22T13:14:01;101344.25;;;18.21;69.57
54920;BME280;63804;53.120;8.764;2023-07-22T13:16:29;101345.75;;;18.23;69.51
54920;BME280;63804;53.120;8.764;2023-07-22T13:18:56;101325.28;;;18.32;69.46